sensor_id;sensor_type;location;lat;lon;timestamp;temperature;humidity
37972;DHT22;23794;48.234;8.344;2022-08-21T00:01:50;13.20;99.90
37972;DHT22;23794;48.234;8.344;2022-08-21T00:04:17;13.10;99.90
37972;DHT22;23794;48.234;8.344;2022-08-21T00:06:51;13.10;99.90
37972;DHT22;23794;48.234;8.344;2022-08-21T00:09:19;13.10;99.90
37972;DHT22;23794;48.234;8.344;2022-08-21T00:11:47;13.20;99.90
37972;DHT22;23794;48.234;8.344;2022-08-21T00:14:15;13.20;99.90
37972;DHT22;23794;48.234;8.344;2022-08-21T00:16:42;13.10;99.90
37972;DHT22;23794;48.234;8.344;2022-08-21T00:19:09;13.10;99.90
37972;DHT22;23794;48.234;8.344;2022-08-21T00:21:36;13.10;99.90
37972;DHT22;23794;48.234;8.344;2022-08-21T00:24:03;13.00;99.90
37972;DHT22;23794;48.234;8.344;2022-08-21T00:26:31;13.10;99.90
37972;DHT22;23794;48.234;8.344;2022-08-21T00:28:58;13.10;99.90
37972;DHT22;23794;48.234;8.344;2022-08-21T00:31:26;13.10;99.90
37972;DHT22;23794;48.234;8.344;2022-08-21T00:33:53;13.20;99.90
37972;DHT22;23794;48.234;8.344;2022-08-21T00:36:27;13.10;99.90
37972;DHT22;23794;48.234;8.344;2022-08-21T00:38:55;13.10;99.90
37972;DHT22;23794;48.234;8.344;2022-08-21T00:41:22;13.00;99.90
37972;DHT22;23794;48.234;8.344;2022-08-21T00:44:07;12.90;99.90
37972;DHT22;23794;48.234;8.344;2022-08-21T00:46:35;13.00;99.90
37972;DHT22;23794;48.234;8.344;2022-08-21T00:49:03;13.00;99.90
37972;DHT22;23794;48.234;8.344;2022-08-21T00:51:50;13.10;99.90
37972;DHT22;23794;48.234;8.344;2022-08-21T00:54:22;13.00;99.90
37972;DHT22;23794;48.234;8.344;2022-08-21T00:56:59;13.00;99.90
37972;DHT22;23794;48.234;8.344;2022-08-21T00:59:28;12.90;99.90
37972;DHT22;23794;48.234;8.344;2022-08-21T01:01:57;12.90;99.90
37972;DHT22;23794;48.234;8.344;2022-08-21T01:04:24;12.90;99.90
37972;DHT22;23794;48.234;8.344;2022-08-21T01:06:51;13.00;99.90
37972;DHT22;23794;48.234;8.344;2022-08-21T01:09:19;12.80;99.90
37972;DHT22;23794;48.234;8.344;2022-08-21T01:11:46;12.70;99.90
37972;DHT22;23794;48.234;8.344;2022-08-21T01:14:14;12.70;99.90
37972;DHT22;23794;48.234;8.344;2022-08-21T01:16:44;12.80;99.90
37972;DHT22;23794;48.234;8.344;2022-08-21T01:19:12;12.80;99.90
37972;DHT22;23794;48.234;8.344;2022-08-21T01:21:41;12.80;99.90
37972;DHT22;23794;48.234;8.344;2022-08-21T01:24:10;12.80;99.90
37972;DHT22;23794;48.234;8.344;2022-08-21T01:26:38;12.80;99.90
37972;DHT22;23794;48.234;8.344;2022-08-21T01:31:59;12.80;99.90
37972;DHT22;23794;48.234;8.344;2022-08-21T01:34:26;12.80;99.90
37972;DHT22;23794;48.234;8.344;2022-08-21T01:36:53;12.70;99.90
37972;DHT22;23794;48.234;8.344;2022-08-21T01:39:20;12.70;99.90
37972;DHT22;23794;48.234;8.344;2022-08-21T01:41:47;12.70;99.90
37972;DHT22;23794;48.234;8.344;2022-08-21T01:44:14;12.70;99.90
37972;DHT22;23794;48.234;8.344;2022-08-21T01:46:41;12.70;99.90
37972;DHT22;23794;48.234;8.344;2022-08-21T01:49:08;12.70;99.90
37972;DHT22;23794;48.234;8.344;2022-08-21T01:51:35;12.70;99.90
37972;DHT22;23794;48.234;8.344;2022-08-21T01:54:02;12.70;99.90
37972;DHT22;23794;48.234;8.344;2022-08-21T01:56:36;12.70;99.90
37972;DHT22;23794;48.234;8.344;2022-08-21T01:59:04;12.70;99.90
37972;DHT22;23794;48.234;8.344;2022-08-21T02:01:31;12.70;99.90
37972;DHT22;23794;48.234;8.344;2022-08-21T02:03:58;12.60;99.90
37972;DHT22;23794;48.234;8.344;2022-08-21T02:06:26;12.50;99.90
37972;DHT22;23794;48.234;8.344;2022-08-21T02:08:53;12.50;99.90
37972;DHT22;23794;48.234;8.344;2022-08-21T02:11:20;12.50;99.90
37972;DHT22;23794;48.234;8.344;2022-08-21T02:13:47;12.60;99.90
37972;DHT22;23794;48.234;8.344;2022-08-21T02:16:14;12.60;99.90
37972;DHT22;23794;48.234;8.344;2022-08-21T02:18:45;12.50;99.90
37972;DHT22;23794;48.234;8.344;2022-08-21T02:21:12;12.50;99.90
37972;DHT22;23794;48.234;8.344;2022-08-21T02:23:39;12.40;99.90
37972;DHT22;23794;48.234;8.344;2022-08-21T02:26:07;12.40;99.90
37972;DHT22;23794;48.234;8.344;2022-08-21T02:28:35;12.40;99.90
37972;DHT22;23794;48.234;8.344;2022-08-21T02:31:03;12.40;99.90
37972;DHT22;23794;48.234;8.344;2022-08-21T02:33:31;12.30;99.90
37972;DHT22;23794;48.234;8.344;2022-08-21T02:35:58;12.40;99.90
37972;DHT22;23794;48.234;8.344;2022-08-21T02:38:30;12.40;99.90
37972;DHT22;23794;48.234;8.344;2022-08-21T02:41:00;12.50;99.90
37972;DHT22;23794;48.234;8.344;2022-08-21T02:43:28;12.50;99.90
37972;DHT22;23794;48.234;8.344;2022-08-21T02:45:56;12.40;99.90
37972;DHT22;23794;48.234;8.344;2022-08-21T02:48:27;12.40;99.90
37972;DHT22;23794;48.234;8.344;2022-08-21T02:51:04;12.40;99.90
37972;DHT22;23794;48.234;8.344;2022-08-21T02:53:32;12.40;99.90
37972;DHT22;23794;48.234;8.344;2022-08-21T02:56:02;12.50;99.90
37972;DHT22;23794;48.234;8.344;2022-08-21T02:58:34;12.40;99.90
37972;DHT22;23794;48.234;8.344;2022-08-21T03:01:02;12.30;99.90
37972;DHT22;23794;48.234;8.344;2022-08-21T03:03:29;12.30;99.90
37972;DHT22;23794;48.234;8.344;2022-08-21T03:05:56;12.40;99.90
37972;DHT22;23794;48.234;8.344;2022-08-21T03:08:23;12.40;99.90
37972;DHT22;23794;48.234;8.344;2022-08-21T03:10:53;12.40;99.90
37972;DHT22;23794;48.234;8.344;2022-08-21T03:13:21;12.30;99.90
37972;DHT22;23794;48.234;8.344;2022-08-21T03:15:49;12.40;99.90
37972;DHT22;23794;48.234;8.344;2022-08-21T03:18:16;12.30;99.90
37972;DHT22;23794;48.234;8.344;2022-08-21T03:20:44;12.30;99.90
37972;DHT22;23794;48.234;8.344;2022-08-21T03:23:12;12.20;99.90
37972;DHT22;23794;48.234;8.344;2022-08-21T03:25:45;12.20;99.90
37972;DHT22;23794;48.234;8.344;2022-08-21T03:28:18;12.20;99.90
37972;DHT22;23794;48.234;8.344;2022-08-21T03:30:46;12.30;99.90
37972;DHT22;23794;48.234;8.344;2022-08-21T03:33:15;12.30;99.90
37972;DHT22;23794;48.234;8.344;2022-08-21T03:35:49;12.20;99.90
37972;DHT22;23794;48.234;8.344;2022-08-21T03:38:18;12.20;99.90
37972;DHT22;23794;48.234;8.344;2022-08-21T03:40:52;12.10;99.90
37972;DHT22;23794;48.234;8.344;2022-08-21T03:43:20;12.20;99.90
37972;DHT22;23794;48.234;8.344;2022-08-21T03:45:47;12.20;99.90
37972;DHT22;23794;48.234;8.344;2022-08-21T03:48:14;12.20;99.90
37972;DHT22;23794;48.234;8.344;2022-08-21T03:50:43;12.10;99.90
37972;DHT22;23794;48.234;8.344;2022-08-21T03:53:12;12.10;99.90
37972;DHT22;23794;48.234;8.344;2022-08-21T03:55:47;12.00;99.90
37972;DHT22;23794;48.234;8.344;2022-08-21T03:58:15;11.90;99.90
37972;DHT22;23794;48.234;8.344;2022-08-21T04:00:49;11.90;99.90
37972;DHT22;23794;48.234;8.344;2022-08-21T04:03:17;12.00;99.90
37972;DHT22;23794;48.234;8.344;2022-08-21T04:05:44;12.00;99.90
37972;DHT22;23794;48.234;8.344;2022-08-21T04:08:13;12.00;99.90
37972;DHT22;23794;48.234;8.344;2022-08-21T04:10:42;12.00;99.90
37972;DHT22;23794;48.234;8.344;2022-08-21T04:13:10;12.00;99.90
37972;DHT22;23794;48.234;8.344;2022-08-21T04:15:37;11.90;99.90
37972;DHT22;23794;48.234;8.344;2022-08-21T04:18:05;11.80;99.90
37972;DHT22;23794;48.234;8.344;2022-08-21T04:20:32;11.90;99.90
37972;DHT22;23794;48.234;8.344;2022-08-21T04:23:00;12.00;99.90
37972;DHT22;23794;48.234;8.344;2022-08-21T04:25:27;11.90;99.90
37972;DHT22;23794;48.234;8.344;2022-08-21T04:27:55;11.90;99.90
37972;DHT22;23794;48.234;8.344;2022-08-21T04:30:22;11.80;99.90
37972;DHT22;23794;48.234;8.344;2022-08-21T04:32:56;11.80;99.90
37972;DHT22;23794;48.234;8.344;2022-08-21T04:35:26;11.80;99.90
37972;DHT22;23794;48.234;8.344;2022-08-21T04:37:54;11.80;99.90
37972;DHT22;23794;48.234;8.344;2022-08-21T04:40:22;11.90;99.90
37972;DHT22;23794;48.234;8.344;2022-08-21T04:43:01;11.80;99.90
37972;DHT22;23794;48.234;8.344;2022-08-21T04:48:04;11.80;99.90
37972;DHT22;23794;48.234;8.344;2022-08-21T04:53:19;11.90;99.90
37972;DHT22;23794;48.234;8.344;2022-08-21T04:55:47;11.90;99.90
37972;DHT22;23794;48.234;8.344;2022-08-21T04:58:17;11.90;99.90
37972;DHT22;23794;48.234;8.344;2022-08-21T05:00:46;11.90;99.90
37972;DHT22;23794;48.234;8.344;2022-08-21T05:03:14;11.90;99.90
37972;DHT22;23794;48.234;8.344;2022-08-21T05:05:42;11.90;99.90
37972;DHT22;23794;48.234;8.344;2022-08-21T05:08:14;11.90;99.90
37972;DHT22;23794;48.234;8.344;2022-08-21T05:10:42;11.80;99.90
37972;DHT22;23794;48.234;8.344;2022-08-21T05:13:12;11.80;99.90
37972;DHT22;23794;48.234;8.344;2022-08-21T05:15:40;11.70;99.90
37972;DHT22;23794;48.234;8.344;2022-08-21T05:18:07;11.80;99.90
37972;DHT22;23794;48.234;8.344;2022-08-21T05:20:35;11.90;99.90
37972;DHT22;23794;48.234;8.344;2022-08-21T05:23:10;11.90;99.90
37972;DHT22;23794;48.234;8.344;2022-08-21T05:25:38;11.90;99.90
37972;DHT22;23794;48.234;8.344;2022-08-21T05:28:05;11.80;99.90
37972;DHT22;23794;48.234;8.344;2022-08-21T05:30:34;11.90;99.90
37972;DHT22;23794;48.234;8.344;2022-08-21T05:33:02;11.90;99.90
37972;DHT22;23794;48.234;8.344;2022-08-21T05:35:30;11.90;99.90
37972;DHT22;23794;48.234;8.344;2022-08-21T05:37:59;11.90;99.90
37972;DHT22;23794;48.234;8.344;2022-08-21T05:40:26;11.90;99.90
37972;DHT22;23794;48.234;8.344;2022-08-21T05:42:55;12.00;99.90
37972;DHT22;23794;48.234;8.344;2022-08-21T05:45:23;12.00;99.90
37972;DHT22;23794;48.234;8.344;2022-08-21T05:48:19;12.10;99.90
37972;DHT22;23794;48.234;8.344;2022-08-21T05:50:47;12.20;99.90
37972;DHT22;23794;48.234;8.344;2022-08-21T05:53:17;12.10;99.90
37972;DHT22;23794;48.234;8.344;2022-08-21T05:55:45;12.10;99.90
37972;DHT22;23794;48.234;8.344;2022-08-21T05:58:18;12.20;99.90
37972;DHT22;23794;48.234;8.344;2022-08-21T06:00:46;12.20;99.90
37972;DHT22;23794;48.234;8.344;2022-08-21T06:03:17;12.30;99.90
37972;DHT22;23794;48.234;8.344;2022-08-21T06:05:45;12.30;99.90
37972;DHT22;23794;48.234;8.344;2022-08-21T06:08:13;12.40;99.90
37972;DHT22;23794;48.234;8.344;2022-08-21T06:10:40;12.50;99.90
37972;DHT22;23794;48.234;8.344;2022-08-21T06:13:08;12.60;99.90
37972;DHT22;23794;48.234;8.344;2022-08-21T06:15:35;12.60;99.90
37972;DHT22;23794;48.234;8.344;2022-08-21T06:18:02;12.70;99.90
37972;DHT22;23794;48.234;8.344;2022-08-21T06:20:29;12.70;99.90
37972;DHT22;23794;48.234;8.344;2022-08-21T06:22:56;12.80;99.90
37972;DHT22;23794;48.234;8.344;2022-08-21T06:25:24;12.90;99.90
37972;DHT22;23794;48.234;8.344;2022-08-21T06:27:51;13.00;99.90
37972;DHT22;23794;48.234;8.344;2022-08-21T06:30:18;13.10;99.90
37972;DHT22;23794;48.234;8.344;2022-08-21T06:32:45;13.20;99.90
37972;DHT22;23794;48.234;8.344;2022-08-21T06:35:12;13.30;99.90
37972;DHT22;23794;48.234;8.344;2022-08-21T06:37:39;13.40;99.90
37972;DHT22;23794;48.234;8.344;2022-08-21T06:40:06;13.60;99.90
37972;DHT22;23794;48.234;8.344;2022-08-21T06:42:39;13.70;99.90
37972;DHT22;23794;48.234;8.344;2022-08-21T06:45:09;13.80;99.90
37972;DHT22;23794;48.234;8.344;2022-08-21T06:47:36;13.90;99.90
37972;DHT22;23794;48.234;8.344;2022-08-21T06:50:04;14.00;99.90
37972;DHT22;23794;48.234;8.344;2022-08-21T06:52:31;14.20;99.90
37972;DHT22;23794;48.234;8.344;2022-08-21T06:54:58;14.40;99.90
37972;DHT22;23794;48.234;8.344;2022-08-21T06:57:25;14.50;99.90
37972;DHT22;23794;48.234;8.344;2022-08-21T06:59:52;14.60;99.90
37972;DHT22;23794;48.234;8.344;2022-08-21T07:02:19;14.70;99.90
37972;DHT22;23794;48.234;8.344;2022-08-21T07:04:46;14.90;99.90
37972;DHT22;23794;48.234;8.344;2022-08-21T07:07:13;14.90;99.90
37972;DHT22;23794;48.234;8.344;2022-08-21T07:09:40;14.90;99.90
37972;DHT22;23794;48.234;8.344;2022-08-21T07:12:07;15.10;99.90
37972;DHT22;23794;48.234;8.344;2022-08-21T07:14:34;15.20;99.90
37972;DHT22;23794;48.234;8.344;2022-08-21T07:17:01;15.40;99.90
37972;DHT22;23794;48.234;8.344;2022-08-21T07:19:28;15.50;99.90
37972;DHT22;23794;48.234;8.344;2022-08-21T07:21:58;15.60;99.90
37972;DHT22;23794;48.234;8.344;2022-08-21T07:24:26;15.70;99.90
37972;DHT22;23794;48.234;8.344;2022-08-21T07:26:53;15.80;99.90
37972;DHT22;23794;48.234;8.344;2022-08-21T07:29:20;15.90;99.90
37972;DHT22;23794;48.234;8.344;2022-08-21T07:31:47;16.00;99.90
37972;DHT22;23794;48.234;8.344;2022-08-21T07:34:14;16.20;99.90
37972;DHT22;23794;48.234;8.344;2022-08-21T07:36:41;16.30;99.90
37972;DHT22;23794;48.234;8.344;2022-08-21T07:39:07;16.40;99.90
37972;DHT22;23794;48.234;8.344;2022-08-21T07:41:34;16.50;99.90
37972;DHT22;23794;48.234;8.344;2022-08-21T07:44:02;16.70;99.90
37972;DHT22;23794;48.234;8.344;2022-08-21T07:46:32;16.80;99.90
37972;DHT22;23794;48.234;8.344;2022-08-21T07:48:59;16.90;99.90
37972;DHT22;23794;48.234;8.344;2022-08-21T07:51:27;17.10;99.90
37972;DHT22;23794;48.234;8.344;2022-08-21T07:53:57;17.20;99.90
37972;DHT22;23794;48.234;8.344;2022-08-21T07:56:25;17.30;99.90
37972;DHT22;23794;48.234;8.344;2022-08-21T07:58:52;17.40;99.90
37972;DHT22;23794;48.234;8.344;2022-08-21T08:01:19;17.60;99.90
37972;DHT22;23794;48.234;8.344;2022-08-21T08:03:46;17.70;99.90
37972;DHT22;23794;48.234;8.344;2022-08-21T08:06:13;17.90;99.90
37972;DHT22;23794;48.234;8.344;2022-08-21T08:08:41;17.90;99.90
37972;DHT22;23794;48.234;8.344;2022-08-21T08:11:09;18.00;99.90
37972;DHT22;23794;48.234;8.344;2022-08-21T08:13:48;18.10;99.90
37972;DHT22;23794;48.234;8.344;2022-08-21T08:16:16;18.20;99.90
37972;DHT22;23794;48.234;8.344;2022-08-21T08:18:42;18.30;99.90
37972;DHT22;23794;48.234;8.344;2022-08-21T08:21:11;18.30;99.90
37972;DHT22;23794;48.234;8.344;2022-08-21T08:23:38;18.50;99.90
37972;DHT22;23794;48.234;8.344;2022-08-21T08:26:05;18.70;99.90
37972;DHT22;23794;48.234;8.344;2022-08-21T08:28:32;18.80;99.90
37972;DHT22;23794;48.234;8.344;2022-08-21T08:31:00;19.00;99.90
37972;DHT22;23794;48.234;8.344;2022-08-21T08:33:27;19.10;99.90
37972;DHT22;23794;48.234;8.344;2022-08-21T08:35:54;19.10;99.90
37972;DHT22;23794;48.234;8.344;2022-08-21T08:38:24;19.30;99.90
37972;DHT22;23794;48.234;8.344;2022-08-21T08:43:47;19.40;99.90
37972;DHT22;23794;48.234;8.344;2022-08-21T08:46:19;19.50;99.90
37972;DHT22;23794;48.234;8.344;2022-08-21T08:48:54;19.60;99.90
37972;DHT22;23794;48.234;8.344;2022-08-21T08:51:44;19.70;99.90
37972;DHT22;23794;48.234;8.344;2022-08-21T08:54:17;19.90;99.90
37972;DHT22;23794;48.234;8.344;2022-08-21T08:56:45;20.00;99.90
37972;DHT22;23794;48.234;8.344;2022-08-21T08:59:19;20.00;99.90
37972;DHT22;23794;48.234;8.344;2022-08-21T09:01:48;20.10;99.90
37972;DHT22;23794;48.234;8.344;2022-08-21T09:04:24;20.20;99.90
37972;DHT22;23794;48.234;8.344;2022-08-21T09:15:26;20.60;99.90
37972;DHT22;23794;48.234;8.344;2022-08-21T09:18:27;20.70;99.90
37972;DHT22;23794;48.234;8.344;2022-08-21T09:21:16;20.70;99.90
37972;DHT22;23794;48.234;8.344;2022-08-21T09:24:52;21.00;99.90
37972;DHT22;23794;48.234;8.344;2022-08-21T09:27:11;21.20;99.90
37972;DHT22;23794;48.234;8.344;2022-08-21T09:29:41;21.10;99.90
37972;DHT22;23794;48.234;8.344;2022-08-21T09:32:15;21.10;99.90
37972;DHT22;23794;48.234;8.344;2022-08-21T09:37:29;20.80;99.90
37972;DHT22;23794;48.234;8.344;2022-08-21T09:39:58;20.80;99.90
37972;DHT22;23794;48.234;8.344;2022-08-21T09:42:30;21.10;99.90
37972;DHT22;23794;48.234;8.344;2022-08-21T09:45:17;21.40;99.90
37972;DHT22;23794;48.234;8.344;2022-08-21T09:47:44;21.70;99.90
37972;DHT22;23794;48.234;8.344;2022-08-21T09:50:19;22.00;99.90
37972;DHT22;23794;48.234;8.344;2022-08-21T09:52:58;22.10;99.90
37972;DHT22;23794;48.234;8.344;2022-08-21T09:55:34;22.30;99.90
37972;DHT22;23794;48.234;8.344;2022-08-21T09:58:20;22.30;99.90
37972;DHT22;23794;48.234;8.344;2022-08-21T10:00:58;22.40;99.90
37972;DHT22;23794;48.234;8.344;2022-08-21T10:03:25;22.30;99.90
37972;DHT22;23794;48.234;8.344;2022-08-21T10:08:26;22.10;99.90
37972;DHT22;23794;48.234;8.344;2022-08-21T10:11:07;22.10;99.90
37972;DHT22;23794;48.234;8.344;2022-08-21T10:14:06;21.80;99.90
37972;DHT22;23794;48.234;8.344;2022-08-21T10:17:11;21.50;99.90
37972;DHT22;23794;48.234;8.344;2022-08-21T10:20:27;21.30;99.90
37972;DHT22;23794;48.234;8.344;2022-08-21T10:23:16;21.30;99.90
37972;DHT22;23794;48.234;8.344;2022-08-21T10:26:02;21.60;99.90
37972;DHT22;23794;48.234;8.344;2022-08-21T10:28:51;22.10;99.90
37972;DHT22;23794;48.234;8.344;2022-08-21T10:31:46;22.50;98.70
37972;DHT22;23794;48.234;8.344;2022-08-21T10:37:07;23.00;97.70
37972;DHT22;23794;48.234;8.344;2022-08-21T10:42:47;23.50;96.40
37972;DHT22;23794;48.234;8.344;2022-08-21T10:45:30;23.80;96.80
37972;DHT22;23794;48.234;8.344;2022-08-21T10:48:07;23.90;95.40
37972;DHT22;23794;48.234;8.344;2022-08-21T10:50:45;23.90;96.70
37972;DHT22;23794;48.234;8.344;2022-08-21T10:58:48;23.00;94.20
37972;DHT22;23794;48.234;8.344;2022-08-21T11:01:23;22.60;94.60
37972;DHT22;23794;48.234;8.344;2022-08-21T11:04:07;22.50;95.50
37972;DHT22;23794;48.234;8.344;2022-08-21T11:06:38;22.50;94.90
37972;DHT22;23794;48.234;8.344;2022-08-21T11:09:18;22.20;95.00
37972;DHT22;23794;48.234;8.344;2022-08-21T11:12:06;22.00;95.30
37972;DHT22;23794;48.234;8.344;2022-08-21T11:14:49;21.90;97.40
37972;DHT22;23794;48.234;8.344;2022-08-21T11:17:21;22.50;96.40
37972;DHT22;23794;48.234;8.344;2022-08-21T11:19:58;23.10;94.80
37972;DHT22;23794;48.234;8.344;2022-08-21T11:22:54;23.40;92.90
37972;DHT22;23794;48.234;8.344;2022-08-21T11:25:31;23.80;91.90
37972;DHT22;23794;48.234;8.344;2022-08-21T11:28:10;23.50;92.30
37972;DHT22;23794;48.234;8.344;2022-08-21T11:31:02;23.10;92.20
37972;DHT22;23794;48.234;8.344;2022-08-21T11:38:57;23.50;91.20
37972;DHT22;23794;48.234;8.344;2022-08-21T11:41:37;24.10;92.20
37972;DHT22;23794;48.234;8.344;2022-08-21T11:47:13;23.90;92.30
37972;DHT22;23794;48.234;8.344;2022-08-21T11:50:06;24.20;91.20
37972;DHT22;23794;48.234;8.344;2022-08-21T11:53:12;23.90;90.80
37972;DHT22;23794;48.234;8.344;2022-08-21T11:56:04;23.30;91.40
37972;DHT22;23794;48.234;8.344;2022-08-21T11:58:42;22.70;90.80
37972;DHT22;23794;48.234;8.344;2022-08-21T12:01:21;22.30;90.20
37972;DHT22;23794;48.234;8.344;2022-08-21T12:04:28;22.00;90.50
37972;DHT22;23794;48.234;8.344;2022-08-21T12:06:56;22.00;90.90
37972;DHT22;23794;48.234;8.344;2022-08-21T12:12:45;22.20;91.50
37972;DHT22;23794;48.234;8.344;2022-08-21T12:14:49;22.70;89.40
37972;DHT22;23794;48.234;8.344;2022-08-21T12:17:20;23.60;90.10
37972;DHT22;23794;48.234;8.344;2022-08-21T12:19:58;24.40;86.70
37972;DHT22;23794;48.234;8.344;2022-08-21T12:22:38;25.20;81.40
37972;DHT22;23794;48.234;8.344;2022-08-21T12:25:10;25.60;77.70
37972;DHT22;23794;48.234;8.344;2022-08-21T12:28:02;25.70;75.10
37972;DHT22;23794;48.234;8.344;2022-08-21T12:30:37;26.10;75.40
37972;DHT22;23794;48.234;8.344;2022-08-21T12:33:32;26.60;76.50
37972;DHT22;23794;48.234;8.344;2022-08-21T12:36:20;26.90;69.90
37972;DHT22;23794;48.234;8.344;2022-08-21T12:38:50;27.10;69.50
37972;DHT22;23794;48.234;8.344;2022-08-21T12:41:26;27.40;67.90
37972;DHT22;23794;48.234;8.344;2022-08-21T12:47:00;26.90;66.10
37972;DHT22;23794;48.234;8.344;2022-08-21T12:49:33;27.10;64.60
37972;DHT22;23794;48.234;8.344;2022-08-21T12:54:42;27.30;61.80
37972;DHT22;23794;48.234;8.344;2022-08-21T13:00:03;27.30;61.20
37972;DHT22;23794;48.234;8.344;2022-08-21T13:02:36;27.50;61.10
37972;DHT22;23794;48.234;8.344;2022-08-21T13:05:07;27.70;59.90
37972;DHT22;23794;48.234;8.344;2022-08-21T13:07:44;27.60;57.80
37972;DHT22;23794;48.234;8.344;2022-08-21T13:10:22;27.60;59.30
37972;DHT22;23794;48.234;8.344;2022-08-21T13:12:52;27.80;60.40
37972;DHT22;23794;48.234;8.344;2022-08-21T13:15:28;28.10;60.30
37972;DHT22;23794;48.234;8.344;2022-08-21T13:18:00;28.00;59.50
37972;DHT22;23794;48.234;8.344;2022-08-21T13:20:40;28.00;58.10
37972;DHT22;23794;48.234;8.344;2022-08-21T13:25:46;28.50;56.60
37972;DHT22;23794;48.234;8.344;2022-08-21T13:28:13;28.40;57.10
37972;DHT22;23794;48.234;8.344;2022-08-21T13:30:43;28.60;57.80
37972;DHT22;23794;48.234;8.344;2022-08-21T13:33:13;28.80;55.60
37972;DHT22;23794;48.234;8.344;2022-08-21T13:38:29;28.20;54.40
37972;DHT22;23794;48.234;8.344;2022-08-21T13:41:08;27.80;54.80
37972;DHT22;23794;48.234;8.344;2022-08-21T13:43:37;27.90;54.70
37972;DHT22;23794;48.234;8.344;2022-08-21T13:46:10;28.00;54.10
37972;DHT22;23794;48.234;8.344;2022-08-21T13:48:38;27.90;54.30
37972;DHT22;23794;48.234;8.344;2022-08-21T13:51:05;28.00;54.50
37972;DHT22;23794;48.234;8.344;2022-08-21T13:53:46;28.40;56.00
37972;DHT22;23794;48.234;8.344;2022-08-21T13:56:33;28.80;54.30
37972;DHT22;23794;48.234;8.344;2022-08-21T13:59:07;28.90;54.00
37972;DHT22;23794;48.234;8.344;2022-08-21T14:01:38;29.00;54.50
37972;DHT22;23794;48.234;8.344;2022-08-21T14:04:16;29.20;56.40
37972;DHT22;23794;48.234;8.344;2022-08-21T14:06:46;29.20;55.70
37972;DHT22;23794;48.234;8.344;2022-08-21T14:09:32;29.20;55.70
37972;DHT22;23794;48.234;8.344;2022-08-21T14:12:04;29.40;55.60
37972;DHT22;23794;48.234;8.344;2022-08-21T14:14:49;29.00;55.10
37972;DHT22;23794;48.234;8.344;2022-08-21T14:17:29;28.30;56.90
37972;DHT22;23794;48.234;8.344;2022-08-21T14:19:59;28.20;56.40
37972;DHT22;23794;48.234;8.344;2022-08-21T14:22:42;28.20;57.20
37972;DHT22;23794;48.234;8.344;2022-08-21T14:28:17;28.50;56.60
37972;DHT22;23794;48.234;8.344;2022-08-21T14:30:45;28.40;58.70
37972;DHT22;23794;48.234;8.344;2022-08-21T14:33:18;27.40;55.90
37972;DHT22;23794;48.234;8.344;2022-08-21T14:35:46;27.50;57.90
37972;DHT22;23794;48.234;8.344;2022-08-21T14:38:16;28.10;57.90
37972;DHT22;23794;48.234;8.344;2022-08-21T14:40:47;29.10;56.20
37972;DHT22;23794;48.234;8.344;2022-08-21T14:43:15;29.30;56.80
37972;DHT22;23794;48.234;8.344;2022-08-21T14:45:42;29.80;56.30
37972;DHT22;23794;48.234;8.344;2022-08-21T14:48:10;29.30;52.70
37972;DHT22;23794;48.234;8.344;2022-08-21T14:50:37;29.70;55.10
37972;DHT22;23794;48.234;8.344;2022-08-21T14:53:04;29.50;54.40
37972;DHT22;23794;48.234;8.344;2022-08-21T14:55:37;28.50;56.00
37972;DHT22;23794;48.234;8.344;2022-08-21T14:58:23;27.60;58.90
37972;DHT22;23794;48.234;8.344;2022-08-21T15:00:52;26.40;58.20
37972;DHT22;23794;48.234;8.344;2022-08-21T15:03:20;26.10;62.60
37972;DHT22;23794;48.234;8.344;2022-08-21T15:05:48;26.70;58.10
37972;DHT22;23794;48.234;8.344;2022-08-21T15:08:17;27.60;60.10
37972;DHT22;23794;48.234;8.344;2022-08-21T15:10:44;28.70;56.20
37972;DHT22;23794;48.234;8.344;2022-08-21T15:13:32;29.50;55.90
37972;DHT22;23794;48.234;8.344;2022-08-21T15:15:59;30.00;52.70
37972;DHT22;23794;48.234;8.344;2022-08-21T15:18:28;29.70;53.80
37972;DHT22;23794;48.234;8.344;2022-08-21T15:20:55;29.40;53.10
37972;DHT22;23794;48.234;8.344;2022-08-21T15:23:23;29.90;53.70
37972;DHT22;23794;48.234;8.344;2022-08-21T15:25:50;29.90;54.70
37972;DHT22;23794;48.234;8.344;2022-08-21T15:28:18;29.50;54.50
37972;DHT22;23794;48.234;8.344;2022-08-21T15:30:47;28.60;53.70
37972;DHT22;23794;48.234;8.344;2022-08-21T15:33:14;27.80;55.90
37972;DHT22;23794;48.234;8.344;2022-08-21T15:35:41;26.90;55.80
37972;DHT22;23794;48.234;8.344;2022-08-21T15:38:08;26.00;60.00
37972;DHT22;23794;48.234;8.344;2022-08-21T15:40:38;25.60;64.20
37972;DHT22;23794;48.234;8.344;2022-08-21T15:43:30;25.20;62.20
37972;DHT22;23794;48.234;8.344;2022-08-21T15:46:00;24.90;65.70
37972;DHT22;23794;48.234;8.344;2022-08-21T15:48:28;24.60;62.00
37972;DHT22;23794;48.234;8.344;2022-08-21T15:50:55;24.40;62.10
37972;DHT22;23794;48.234;8.344;2022-08-21T15:53:21;24.30;63.40
37972;DHT22;23794;48.234;8.344;2022-08-21T15:55:48;24.30;63.00
37972;DHT22;23794;48.234;8.344;2022-08-21T15:58:16;24.20;65.60
37972;DHT22;23794;48.234;8.344;2022-08-21T16:00:43;24.10;62.90
37972;DHT22;23794;48.234;8.344;2022-08-21T16:03:13;24.10;63.20
37972;DHT22;23794;48.234;8.344;2022-08-21T16:05:46;24.10;63.60
37972;DHT22;23794;48.234;8.344;2022-08-21T16:08:15;23.90;65.10
37972;DHT22;23794;48.234;8.344;2022-08-21T16:10:42;23.70;67.00
37972;DHT22;23794;48.234;8.344;2022-08-21T16:13:36;23.60;68.50
37972;DHT22;23794;48.234;8.344;2022-08-21T16:16:05;23.40;68.30
37972;DHT22;23794;48.234;8.344;2022-08-21T16:18:32;23.30;69.00
37972;DHT22;23794;48.234;8.344;2022-08-21T16:20:58;23.30;68.30
37972;DHT22;23794;48.234;8.344;2022-08-21T16:23:25;23.10;67.40
37972;DHT22;23794;48.234;8.344;2022-08-21T16:25:52;23.00;65.60
37972;DHT22;23794;48.234;8.344;2022-08-21T16:28:19;23.20;66.50
37972;DHT22;23794;48.234;8.344;2022-08-21T16:30:49;23.10;69.60
37972;DHT22;23794;48.234;8.344;2022-08-21T16:33:31;23.10;70.50
37972;DHT22;23794;48.234;8.344;2022-08-21T16:35:59;23.10;69.60
37972;DHT22;23794;48.234;8.344;2022-08-21T16:38:27;23.00;75.10
37972;DHT22;23794;48.234;8.344;2022-08-21T16:40:55;22.80;76.20
37972;DHT22;23794;48.234;8.344;2022-08-21T16:43:25;22.80;77.50
37972;DHT22;23794;48.234;8.344;2022-08-21T16:45:53;22.60;78.70
37972;DHT22;23794;48.234;8.344;2022-08-21T16:48:22;22.40;77.80
37972;DHT22;23794;48.234;8.344;2022-08-21T16:50:49;22.20;75.50
37972;DHT22;23794;48.234;8.344;2022-08-21T16:53:16;22.20;79.90
37972;DHT22;23794;48.234;8.344;2022-08-21T16:55:43;22.30;81.00
37972;DHT22;23794;48.234;8.344;2022-08-21T16:58:20;22.30;80.90
37972;DHT22;23794;48.234;8.344;2022-08-21T17:00:48;22.30;77.30
37972;DHT22;23794;48.234;8.344;2022-08-21T17:03:16;22.30;80.80